Time;durP1;ratioP1;P1;durP2;ratioP2;P2;SDS_P1;SDS_P2;PMS_P1;PMS_P2;Temp;Humidity;BMP_temperature;BMP_pressure;BME280_temperature;BME280_humidity;BME280_pressure;Samples;Min_cycle;Max_cycle;Signal;HPM_P1;HPM_P2
2022/01/23 00:02:18;;;;;;;;;;;;;;;16.49;35.04;101027.13;5077625;28;805;-47
2022/01/23 00:04:44;;;;;;;;;;;;;;;16.47;35.02;101029.31;5078041;28;813;-48
2022/01/23 00:07:13;;;;;;;;;;;;;;;16.47;35.16;101032.06;5077944;28;860;-51
2022/01/23 00:09:39;;;;;;;;;;;;;;;16.29;35.45;101036.88;5052691;28;821;-50
2022/01/23 00:12:09;;;;;;;;;;;;;;;16.02;35.76;101034.22;5065068;28;878;-50
2022/01/23 00:17:21;;;;;;;;;;;;;;;16.10;35.80;101028.25;5058030;28;742;-50
2022/01/23 00:19:52;;;;;;;;;;;;;;;16.30;35.39;101038.53;5040488;28;809;-51
2022/01/23 00:22:18;;;;;;;;;;;;;;;16.65;34.92;101037.09;5058399;28;885;-51
2022/01/23 00:30:26;;;;;;;;;;;;;;;15.85;36.15;101035.22;5040438;28;1842;-48
2022/01/23 00:32:52;;;;;;;;;;;;;;;15.67;36.47;101036.41;5057666;28;833;-50
2022/01/23 00:35:17;;;;;;;;;;;;;;;15.94;35.95;101035.56;5057955;28;1902;-53
2022/01/23 00:37:43;;;;;;;;;;;;;;;16.75;34.60;101039.88;5058789;28;992;-49
2022/01/23 00:40:09;;;;;;;;;;;;;;;16.50;34.73;101043.31;5065121;28;750;-50
2022/01/23 00:42:35;;;;;;;;;;;;;;;16.10;35.56;101041.16;5057543;28;809;-51
2022/01/23 00:45:26;;;;;;;;;;;;;;;15.87;36.19;101037.69;5058320;28;1052;-52
2022/01/23 00:47:46;;;;;;;;;;;;;;;15.78;36.46;101050.19;5075584;28;1587;-53
2022/01/23 00:50:11;;;;;;;;;;;;;;;16.43;35.34;101051.78;5048159;28;1114;-50
2022/01/23 00:52:37;;;;;;;;;;;;;;;16.39;35.06;101061.63;5057584;28;991;-53
2022/01/23 00:55:04;;;;;;;;;;;;;;;16.10;35.50;101060.34;5038896;28;1980;-47
2022/01/23 00:57:30;;;;;;;;;;;;;;;15.97;36.01;101042.44;5058018;28;754;-52
2022/01/23 00:59:56;;;;;;;;;;;;;;;15.87;35.83;101038.50;5057344;28;786;-52
2022/01/23 01:02:21;;;;;;;;;;;;;;;16.12;35.68;101030.72;5039405;28;941;-51
2022/01/23 01:04:47;;;;;;;;;;;;;;;16.33;35.16;101032.53;5076373;28;825;-51
2022/01/23 01:07:12;;;;;;;;;;;;;;;16.62;34.80;101036.78;5076505;28;830;-50
2022/01/23 01:09:38;;;;;;;;;;;;;;;16.28;35.05;101037.97;5067879;28;874;-47
2022/01/23 01:12:06;;;;;;;;;;;;;;;15.87;35.90;101037.69;5039183;28;1367;-50
2022/01/23 01:17:11;;;;;;;;;;;;;;;15.95;35.91;101029.00;5057997;28;1302;-53
2022/01/23 01:30:46;;;;;;;;;;;;;;;15.81;36.18;101038.72;5058087;28;1449;-51
2022/01/23 01:33:24;;;;;;;;;;;;;;;15.75;36.59;101043.31;5075833;28;881;-51
2022/01/23 01:35:57;;;;;;;;;;;;;;;16.19;35.54;101034.91;5075710;28;1890;-52
2022/01/23 01:38:24;;;;;;;;;;;;;;;16.92;34.25;101041.63;5075997;28;782;-47
2022/01/23 01:40:50;;;;;;;;;;;;;;;16.48;34.79;101037.28;5038674;28;1238;-50
2022/01/23 01:43:16;;;;;;;;;;;;;;;15.89;35.78;101036.34;5039074;28;1331;-53
2022/01/23 01:45:42;;;;;;;;;;;;;;;15.81;36.21;101049.69;5056477;28;828;-47
2022/01/23 01:48:21;;;;;;;;;;;;;;;15.86;36.04;101052.50;5056727;28;742;-47
2022/01/23 01:50:48;;;;;;;;;;;;;;;15.99;35.82;101052.06;5051906;28;1641;-49
2022/01/23 01:53:16;;;;;;;;;;;;;;;16.40;35.13;101057.00;5050835;28;1285;-51
2022/01/23 01:55:46;;;;;;;;;;;;;;;16.33;35.08;101056.41;5044344;28;1986;-50
2022/01/23 01:58:57;;;;;;;;;;;;;;;16.07;35.57;101048.84;5058045;28;1212;-50
2022/01/23 02:10:10;;;;;;;;;;;;;;;16.46;34.83;101066.09;5034068;28;1193;-50
2022/01/23 02:55:43;;;;;;;;;;;;;;;16.37;34.92;101102.25;5044328;28;1905;-52
2022/01/23 02:58:11;;;;;;;;;;;;;;;15.97;35.48;101095.38;5044884;28;1110;-50
2022/01/23 03:00:48;;;;;;;;;;;;;;;15.83;35.75;101092.22;5056846;28;1210;-52
2022/01/23 03:03:44;;;;;;;;;;;;;;;16.08;35.47;101091.59;5071088;28;989;-49
2022/01/23 03:14:59;;;;;;;;;;;;;;;15.92;35.53;101114.50;5041305;28;1119;-47
2022/01/23 03:30:28;;;;;;;;;;;;;;;16.04;35.52;101128.88;5054717;28;834;-48
2022/01/23 03:32:54;;;;;;;;;;;;;;;16.26;35.00;101125.22;5059456;28;796;-49
2022/01/23 03:35:20;;;;;;;;;;;;;;;16.55;34.38;101139.44;5060747;28;1924;-50
2022/01/23 03:37:48;;;;;;;;;;;;;;;16.34;35.12;101141.22;5060150;28;1571;-52
2022/01/23 03:40:14;;;;;;;;;;;;;;;15.99;35.44;101144.47;5067468;28;916;-53
2022/01/23 03:42:41;;;;;;;;;;;;;;;15.97;35.46;101138.44;5059044;28;848;-48
2022/01/23 03:47:41;;;;;;;;;;;;;;;16.50;34.51;101144.88;5043118;28;1443;-49
2022/01/23 03:50:09;;;;;;;;;;;;;;;16.17;34.98;101140.50;5051050;28;1403;-51
2022/01/23 03:52:38;;;;;;;;;;;;;;;16.03;35.43;101151.94;5040709;28;1174;-52
2022/01/23 03:55:06;;;;;;;;;;;;;;;16.10;35.32;101137.16;5037534;28;1910;-50
2022/01/23 03:57:33;;;;;;;;;;;;;;;16.18;35.14;101142.19;5040772;28;1392;-50
2022/01/23 03:59:59;;;;;;;;;;;;;;;16.50;34.53;101155.03;5040480;28;1327;-53
2022/01/23 04:02:24;;;;;;;;;;;;;;;16.43;34.56;101145.09;5074065;28;773;-47
2022/01/23 04:04:50;;;;;;;;;;;;;;;16.09;35.14;101144.59;5059610;28;1228;-48
2022/01/23 04:07:23;;;;;;;;;;;;;;;15.90;35.50;101147.69;5059587;28;1204;-49
2022/01/23 04:09:49;;;;;;;;;;;;;;;15.84;35.64;101164.38;5033071;28;1150;-48
2022/01/23 04:14:52;;;;;;;;;;;;;;;16.51;34.53;101156.69;5055383;28;1977;-47
2022/01/23 04:20:07;;;;;;;;;;;;;;;16.08;35.18;101159.38;5059862;28;1110;-52
2022/01/23 05:00:34;;;;;;;;;;;;;;;16.14;35.18;101206.88;5039815;28;1092;-56
2022/01/23 05:06:25;;;;;;;;;;;;;;;15.75;35.69;101246.22;5036672;28;1418;-49
2022/01/23 05:09:07;;;;;;;;;;;;;;;16.11;35.27;101229.38;5039206;28;1313;-53
2022/01/23 05:11:48;;;;;;;;;;;;;;;16.42;34.38;101235.94;5075160;28;813;-55
2022/01/23 05:14:27;;;;;;;;;;;;;;;16.41;34.49;101246.09;5051217;28;1024;-55
2022/01/23 05:16:52;;;;;;;;;;;;;;;16.16;34.61;101237.63;5038464;28;824;-57
2022/01/23 05:19:17;;;;;;;;;;;;;;;16.02;34.89;101248.19;5072158;28;988;-57
2022/01/23 05:24:18;;;;;;;;;;;;;;;16.11;34.89;101245.81;5055123;28;832;-57
2022/01/23 05:26:46;;;;;;;;;;;;;;;16.53;34.30;101258.84;5057253;28;798;-52
2022/01/23 05:29:11;;;;;;;;;;;;;;;16.36;34.34;101254.28;5056369;28;916;-50
2022/01/23 05:31:37;;;;;;;;;;;;;;;16.15;34.89;101253.25;5070677;28;848;-48
2022/01/23 05:34:03;;;;;;;;;;;;;;;16.18;34.87;101265.66;5058117;28;1365;-49
2022/01/23 05:36:29;;;;;;;;;;;;;;;16.19;34.88;101270.88;5057930;28;1906;-54
2022/01/23 05:38:55;;;;;;;;;;;;;;;16.31;34.60;101278.94;5057127;28;1490;-55
2022/01/23 05:41:21;;;;;;;;;;;;;;;16.65;34.07;101284.19;5038396;28;1150;-53
2022/01/23 05:43:50;;;;;;;;;;;;;;;16.24;34.62;101283.81;5047078;28;1288;-53
2022/01/23 05:46:16;;;;;;;;;;;;;;;16.12;34.98;101283.13;5076113;28;801;-52
2022/01/23 05:49:09;;;;;;;;;;;;;;;15.70;35.73;101281.81;5035532;28;1075;-56
2022/01/23 05:51:45;;;;;;;;;;;;;;;16.17;35.16;101283.19;5055929;28;1210;-57
2022/01/23 05:54:51;;;;;;;;;;;;;;;16.84;33.87;101289.28;5037491;28;2031;-58
2022/01/23 05:57:37;;;;;;;;;;;;;;;16.34;34.10;101286.66;5056605;28;1920;-53
2022/01/23 06:00:26;;;;;;;;;;;;;;;15.86;35.23;101293.81;5067202;28;1600;-54
2022/01/23 06:02:52;;;;;;;;;;;;;;;15.70;35.34;101296.34;5075895;28;748;-54
2022/01/23 06:05:19;;;;;;;;;;;;;;;15.90;35.17;101305.94;5057453;28;1391;-53
2022/01/23 06:07:56;;;;;;;;;;;;;;;16.34;34.43;101300.38;5070289;28;889;-53
2022/01/23 06:10:24;;;;;;;;;;;;;;;16.50;34.14;101303.28;5037320;28;903;-54
2022/01/23 06:12:51;;;;;;;;;;;;;;;16.06;34.86;101304.19;5038340;28;1214;-52
2022/01/23 06:15:16;;;;;;;;;;;;;;;15.83;35.45;101313.53;5056389;28;1980;-52
2022/01/23 06:17:43;;;;;;;;;;;;;;;15.84;35.20;101323.41;5038967;28;1312;-53
2022/01/23 06:20:34;;;;;;;;;;;;;;;16.25;34.79;101312.91;5027273;28;1056;-52
2022/01/23 06:23:18;;;;;;;;;;;;;;;16.39;34.18;101307.84;5050793;28;689;-54
2022/01/23 06:26:13;;;;;;;;;;;;;;;15.84;35.26;101307.78;5037320;28;1181;-53
2022/01/23 06:28:52;;;;;;;;;;;;;;;15.84;35.32;101321.50;5038532;28;1182;-57
2022/01/23 06:31:18;;;;;;;;;;;;;;;15.85;35.39;101308.59;5021656;28;1378;-56
2022/01/23 06:33:43;;;;;;;;;;;;;;;16.06;34.59;101318.75;5060880;28;834;-57
2022/01/23 06:36:09;;;;;;;;;;;;;;;16.31;34.32;101313.78;5075253;28;1910;-57
2022/01/23 06:38:35;;;;;;;;;;;;;;;16.22;34.66;101313.44;5075604;28;841;-56
2022/01/23 06:41:02;;;;;;;;;;;;;;;16.04;34.75;101317.34;5039405;28;967;-58
2022/01/23 06:44:01;;;;;;;;;;;;;;;16.07;34.66;101312.19;5042705;28;1166;-57
2022/01/23 06:46:33;;;;;;;;;;;;;;;16.09;34.64;101311.94;5044483;28;1162;-57
2022/01/23 06:49:00;;;;;;;;;;;;;;;16.50;34.36;101314.25;5060584;28;1186;-57
2022/01/23 06:51:29;;;;;;;;;;;;;;;16.62;33.57;101301.19;5060413;28;785;-58
2022/01/23 06:53:55;;;;;;;;;;;;;;;16.04;34.90;101306.38;5059758;28;1088;-57
2022/01/23 06:56:20;;;;;;;;;;;;;;;15.76;35.35;101307.38;5038646;28;1988;-57
2022/01/23 06:58:47;;;;;;;;;;;;;;;15.68;35.61;101314.13;5043058;28;1444;-57
2022/01/23 07:01:13;;;;;;;;;;;;;;;15.89;35.21;101317.97;5079145;28;928;-57
2022/01/23 07:03:47;;;;;;;;;;;;;;;16.20;34.74;101318.34;5060279;28;1088;-57
2022/01/23 07:06:31;;;;;;;;;;;;;;;16.63;33.76;101322.06;5061271;28;1331;-58
2022/01/23 07:09:05;;;;;;;;;;;;;;;16.12;34.57;101318.78;5058911;28;1347;-57
2022/01/23 07:12:00;;;;;;;;;;;;;;;15.90;34.88;101327.88;5037300;28;1367;-57
2022/01/23 07:15:04;;;;;;;;;;;;;;;15.95;34.94;101319.72;5078231;28;1901;-57
2022/01/23 07:17:41;;;;;;;;;;;;;;;16.39;34.04;101336.09;5061183;28;1322;-57
2022/01/23 07:20:20;;;;;;;;;;;;;;;16.72;33.37;101312.25;5059961;28;871;-57
2022/01/23 07:22:46;;;;;;;;;;;;;;;16.20;34.25;101321.06;5078746;28;833;-58
2022/01/23 07:25:12;;;;;;;;;;;;;;;15.78;35.07;101325.25;5048740;28;1092;-57
2022/01/23 07:27:46;;;;;;;;;;;;;;;15.76;35.27;101327.41;5060705;28;1154;-57
2022/01/23 07:30:23;;;;;;;;;;;;;;;16.00;34.67;101327.97;5060649;28;1134;-58
2022/01/23 07:32:49;;;;;;;;;;;;;;;16.29;34.39;101329.69;5061236;28;1122;-58
2022/01/23 07:35:14;;;;;;;;;;;;;;;16.58;33.67;101325.59;5060343;28;1963;-58
2022/01/23 07:37:40;;;;;;;;;;;;;;;16.57;33.72;101328.59;5044366;28;1418;-58
2022/01/23 07:40:20;;;;;;;;;;;;;;;16.31;34.25;101317.34;5055897;28;859;-58
2022/01/23 07:42:49;;;;;;;;;;;;;;;15.96;34.83;101306.81;5041401;28;1203;-58
2022/01/23 07:45:32;;;;;;;;;;;;;;;15.78;35.23;101316.16;5059196;28;621;-58
2022/01/23 07:48:21;;;;;;;;;;;;;;;16.08;34.69;101313.81;5050448;28;1194;-57
2022/01/23 07:50:57;;;;;;;;;;;;;;;16.49;33.91;101313.41;5047026;28;1137;-57
2022/01/23 07:53:41;;;;;;;;;;;;;;;16.80;33.61;101321.13;5078162;28;1095;-57
2022/01/23 07:56:15;;;;;;;;;;;;;;;16.65;33.92;101311.66;5038873;28;1905;-57
2022/01/23 07:59:03;;;;;;;;;;;;;;;16.22;34.54;101307.94;5027872;28;1319;-57
2022/01/23 08:01:51;;;;;;;;;;;;;;;16.05;34.65;101310.78;5030343;28;1184;-57
2022/01/23 08:04:36;;;;;;;;;;;;;;;15.81;35.38;101312.94;5053967;28;636;-57
2022/01/23 08:07:20;;;;;;;;;;;;;;;15.98;35.16;101310.16;5041035;28;1152;-57
2022/01/23 08:09:52;;;;;;;;;;;;;;;16.51;34.19;101293.94;5056775;28;923;-57
2022/01/23 08:12:17;;;;;;;;;;;;;;;16.74;33.36;101288.09;5058453;28;897;-57
2022/01/23 08:14:42;;;;;;;;;;;;;;;16.51;34.04;101300.28;5058560;28;1969;-57
2022/01/23 08:17:08;;;;;;;;;;;;;;;16.28;34.43;101273.16;5075094;28;726;-57
2022/01/23 08:19:33;;;;;;;;;;;;;;;15.95;35.34;101274.97;5077824;28;824;-57
2022/01/23 08:21:59;;;;;;;;;;;;;;;15.87;35.42;101279.03;5077791;28;865;-57
2022/01/23 08:24:24;;;;;;;;;;;;;;;16.37;34.26;101279.84;5073187;28;858;-57
2022/01/23 08:26:50;;;;;;;;;;;;;;;17.13;32.87;101283.50;5073285;28;806;-57
2022/01/23 08:29:15;;;;;;;;;;;;;;;16.63;33.87;101285.53;5062892;28;763;-57
2022/01/23 08:31:43;;;;;;;;;;;;;;;16.18;34.73;101293.91;5057965;28;782;-58
2022/01/23 08:34:08;;;;;;;;;;;;;;;15.94;35.31;101284.31;5057361;28;1827;-57
2022/01/23 08:36:36;;;;;;;;;;;;;;;16.12;34.88;101280.38;5057224;28;1983;-57
2022/01/23 08:39:01;;;;;;;;;;;;;;;16.64;34.07;101287.22;5039780;28;992;-57
2022/01/23 08:44:13;;;;;;;;;;;;;;;16.44;34.36;101294.16;5077468;28;745;-57
2022/01/23 08:46:38;;;;;;;;;;;;;;;16.14;34.96;101300.16;5076814;28;769;-58
2022/01/23 08:49:04;;;;;;;;;;;;;;;15.67;35.73;101302.34;5075810;28;999;-56
2022/01/23 08:51:29;;;;;;;;;;;;;;;15.98;35.30;101301.94;5056777;28;794;-57
2022/01/23 08:53:55;;;;;;;;;;;;;;;16.23;34.62;101313.16;5050518;28;1412;-57
2022/01/23 08:56:20;;;;;;;;;;;;;;;16.65;34.09;101300.69;5056129;28;1976;-57
2022/01/23 08:58:46;;;;;;;;;;;;;;;17.04;33.21;101302.38;5057716;28;910;-57
2022/01/23 09:01:11;;;;;;;;;;;;;;;16.77;33.63;101295.84;5057576;28;846;-57
2022/01/23 09:03:37;;;;;;;;;;;;;;;16.26;34.73;101309.09;5057182;28;1014;-57
2022/01/23 09:06:03;;;;;;;;;;;;;;;16.08;35.04;101291.88;5057272;28;881;-57
2022/01/23 09:08:29;;;;;;;;;;;;;;;15.88;35.55;101280.69;5051263;28;909;-58
2022/01/23 09:10:55;;;;;;;;;;;;;;;15.96;35.38;101279.41;5068319;28;851;-57
2022/01/23 09:13:52;;;;;;;;;;;;;;;16.49;34.25;101276.91;5077124;28;944;-58
2022/01/23 09:16:15;;;;;;;;;;;;;;;16.88;33.51;101276.69;5040116;28;1988;-58
2022/01/23 09:18:41;;;;;;;;;;;;;;;16.82;33.60;101281.31;5039277;28;767;-58
2022/01/23 09:21:08;;;;;;;;;;;;;;;16.42;34.48;101275.22;5057441;28;730;-57
2022/01/23 09:23:34;;;;;;;;;;;;;;;16.14;35.03;101278.22;5057174;28;1491;-59
2022/01/23 09:26:08;;;;;;;;;;;;;;;16.08;35.13;101280.91;5071370;28;1002;-57
2022/01/23 09:28:34;;;;;;;;;;;;;;;16.22;34.91;101292.28;5076256;28;920;-57
2022/01/23 09:31:02;;;;;;;;;;;;;;;16.55;34.02;101275.84;5076241;28;766;-57
2022/01/23 09:33:28;;;;;;;;;;;;;;;17.19;33.12;101263.19;5056583;28;887;-58
2022/01/23 09:35:53;;;;;;;;;;;;;;;16.56;34.13;101269.28;5057411;28;1973;-58
2022/01/23 09:38:19;;;;;;;;;;;;;;;16.03;35.03;101267.16;5056986;28;1018;-58
2022/01/23 09:40:44;;;;;;;;;;;;;;;15.91;35.54;101263.72;5052790;28;891;-57
2022/01/23 09:43:15;;;;;;;;;;;;;;;15.89;35.54;101252.16;5057205;28;864;-60
2022/01/23 09:45:40;;;;;;;;;;;;;;;16.38;34.56;101259.50;5056559;28;915;-60
2022/01/23 09:48:08;;;;;;;;;;;;;;;17.01;33.50;101254.28;5056701;28;873;-59
2022/01/23 09:50:37;;;;;;;;;;;;;;;16.63;34.08;101250.66;5064549;28;1055;-58
2022/01/23 09:53:02;;;;;;;;;;;;;;;16.30;34.57;101247.09;5067769;28;1125;-58
2022/01/23 09:55:28;;;;;;;;;;;;;;;16.03;35.18;101253.44;5060820;28;1917;-59
2022/01/23 09:57:53;;;;;;;;;;;;;;;15.98;35.19;101244.31;5065832;28;787;-60
2022/01/23 10:00:19;;;;;;;;;;;;;;;16.15;34.85;101252.44;5056752;28;790;-58
2022/01/23 10:02:49;;;;;;;;;;;;;;;16.41;34.50;101245.25;5056336;28;771;-58
2022/01/23 10:05:15;;;;;;;;;;;;;;;16.79;33.57;101248.88;5056659;28;794;-58
2022/01/23 10:07:41;;;;;;;;;;;;;;;16.64;34.13;101235.84;5063003;28;838;-59
2022/01/23 10:10:10;;;;;;;;;;;;;;;16.42;34.52;101230.47;5057546;28;873;-60
2022/01/23 10:12:39;;;;;;;;;;;;;;;15.97;35.16;101235.25;5075774;28;859;-59
2022/01/23 10:15:05;;;;;;;;;;;;;;;15.86;35.57;101219.78;5075282;28;1890;-59
2022/01/23 10:17:30;;;;;;;;;;;;;;;16.43;34.64;101221.97;5075662;28;1166;-59
2022/01/23 10:19:56;;;;;;;;;;;;;;;17.01;33.33;101215.84;5072321;28;1126;-58
2022/01/23 10:22:22;;;;;;;;;;;;;;;16.50;34.29;101209.94;5053619;28;1167;-58
2022/01/23 10:24:48;;;;;;;;;;;;;;;16.00;35.21;101212.78;5049546;28;1427;-58
2022/01/23 10:27:13;;;;;;;;;;;;;;;15.94;35.27;101226.72;5056394;28;988;-57
2022/01/23 10:29:45;;;;;;;;;;;;;;;16.14;35.01;101210.44;5056338;28;882;-58
2022/01/23 10:32:21;;;;;;;;;;;;;;;16.40;34.66;101214.25;5055914;28;866;-58
2022/01/23 10:34:56;;;;;;;;;;;;;;;16.73;33.98;101215.06;5056132;28;1917;-58
2022/01/23 10:37:23;;;;;;;;;;;;;;;17.03;33.38;101213.63;5056381;28;786;-58
2022/01/23 10:39:48;;;;;;;;;;;;;;;16.64;34.06;101216.63;5053989;28;872;-59
2022/01/23 10:47:59;;;;;;;;;;;;;;;16.17;35.07;101211.84;5049598;28;801;-57
2022/01/23 10:50:24;;;;;;;;;;;;;;;16.82;33.89;101217.31;5063653;28;972;-57
2022/01/23 10:52:51;;;;;;;;;;;;;;;16.92;33.34;101239.38;5055716;28;1190;-58
2022/01/23 10:55:19;;;;;;;;;;;;;;;16.41;34.27;101213.16;5054119;28;1972;-57
2022/01/23 10:57:45;;;;;;;;;;;;;;;16.14;34.88;101210.44;5056209;28;857;-57
2022/01/23 11:00:19;;;;;;;;;;;;;;;15.84;35.48;101209.06;5037305;28;840;-58
2022/01/23 11:02:45;;;;;;;;;;;;;;;16.00;35.11;101209.22;5051448;28;739;-58
2022/01/23 11:05:15;;;;;;;;;;;;;;;16.39;34.42;101201.63;5056346;28;786;-57
2022/01/23 11:07:43;;;;;;;;;;;;;;;16.71;33.92;101210.94;5055762;28;869;-57
2022/01/23 11:10:10;;;;;;;;;;;;;;;17.08;33.16;101204.59;5049817;28;820;-58
2022/01/23 11:18:06;;;;;;;;;;;;;;;16.04;35.14;101211.19;5055751;28;874;-57
2022/01/23 11:20:32;;;;;;;;;;;;;;;16.07;35.14;101190.63;5049436;28;834;-58
2022/01/23 11:23:16;;;;;;;;;;;;;;;16.12;35.20;101204.41;5055433;28;785;-58
2022/01/23 11:25:57;;;;;;;;;;;;;;;16.30;34.82;101184.00;5056832;28;891;-58
2022/01/23 11:28:43;;;;;;;;;;;;;;;16.70;33.84;101188.13;5076164;28;742;-58
2022/01/23 11:31:11;;;;;;;;;;;;;;;16.92;33.45;101189.94;5069801;28;1506;-58
2022/01/23 11:33:40;;;;;;;;;;;;;;;17.07;33.16;101195.53;5059592;28;781;-58
2022/01/23 11:36:05;;;;;;;;;;;;;;;16.95;33.42;101200.41;5059684;28;1980;-58
2022/01/23 11:38:31;;;;;;;;;;;;;;;16.74;33.74;101186.50;5057941;28;815;-57
2022/01/23 11:54:38;;;;;;;;;;;;;;;17.06;33.64;101201.28;5053695;28;852;-50
2022/01/23 11:57:03;;;;;;;;;;;;;;;17.41;32.75;101191.56;5059090;28;830;-57
2022/01/23 11:59:39;;;;;;;;;;;;;;;17.37;32.83;101193.19;5058826;28;809;-59
2022/01/23 12:02:15;;;;;;;;;;;;;;;16.89;34.06;101185.00;5059204;28;838;-58
2022/01/23 12:04:41;;;;;;;;;;;;;;;16.81;34.17;101193.69;5061652;28;954;-57
2022/01/23 12:07:11;;;;;;;;;;;;;;;16.41;34.98;101188.47;5077652;28;894;-58
2022/01/23 12:09:36;;;;;;;;;;;;;;;16.20;35.37;101192.13;5071697;28;880;-59
2022/01/23 12:12:02;;;;;;;;;;;;;;;15.92;36.07;101188.56;5040878;28;1006;-57
2022/01/23 12:17:28;;;;;;;;;;;;;;;16.20;35.38;101186.63;5055038;28;833;-57
2022/01/23 12:20:00;;;;;;;;;;;;;;;16.61;34.63;101192.47;5052381;28;1451;-58
2022/01/23 12:22:45;;;;;;;;;;;;;;;16.84;34.02;101187.66;5059001;28;738;-59
2022/01/23 12:25:11;;;;;;;;;;;;;;;17.17;33.32;101199.44;5053853;28;859;-58
2022/01/23 12:27:36;;;;;;;;;;;;;;;17.34;32.96;101197.28;5058640;28;801;-57
2022/01/23 12:30:20;;;;;;;;;;;;;;;17.04;33.57;101204.31;5060350;28;900;-58
2022/01/23 12:32:46;;;;;;;;;;;;;;;16.57;34.30;101197.63;5077489;28;837;-57
2022/01/23 12:35:11;;;;;;;;;;;;;;;16.26;35.07;101210.28;5077642;28;2037;-55
2022/01/23 12:38:06;;;;;;;;;;;;;;;16.13;35.31;101214.31;5076396;28;861;-55
2022/01/23 12:40:32;;;;;;;;;;;;;;;15.84;35.96;101213.72;5044043;28;1377;-50
2022/01/23 12:43:15;;;;;;;;;;;;;;;16.14;35.33;101212.38;5055049;28;838;-52
2022/01/23 12:45:47;;;;;;;;;;;;;;;16.67;34.25;101215.28;5077069;28;785;-52
2022/01/23 12:48:25;;;;;;;;;;;;;;;16.96;33.79;101224.03;5077535;28;1058;-55
2022/01/23 12:50:50;;;;;;;;;;;;;;;17.15;33.37;101220.84;5061901;28;1059;-53
2022/01/23 12:53:16;;;;;;;;;;;;;;;17.07;33.33;101230.44;5057647;28;1048;-55
2022/01/23 12:56:20;;;;;;;;;;;;;;;16.72;34.02;101223.56;5059967;28;1962;-55
2022/01/23 12:58:52;;;;;;;;;;;;;;;16.35;34.72;101238.91;4976348;28;1427;-55
2022/01/23 13:01:19;;;;;;;;;;;;;;;16.01;35.53;101224.59;4977259;28;865;-58
2022/01/23 13:03:51;;;;;;;;;;;;;;;15.83;36.02;101234.81;5019528;28;1075;-57
2022/01/23 13:06:17;;;;;;;;;;;;;;;16.22;35.27;101242.09;5057294;28;779;-58
2022/01/23 13:08:50;;;;;;;;;;;;;;;16.23;35.07;101227.28;5038468;28;1022;-55
2022/01/23 13:11:50;;;;;;;;;;;;;;;16.64;34.32;101229.56;5056040;28;934;-57
2022/01/23 13:14:07;;;;;;;;;;;;;;;16.75;33.99;101229.34;5057304;28;1520;-57
2022/01/23 13:16:48;;;;;;;;;;;;;;;16.94;33.56;101239.94;5071029;28;1897;-57
2022/01/23 13:19:33;;;;;;;;;;;;;;;16.82;33.92;101244.78;5077024;28;750;-57
2022/01/23 13:30:23;;;;;;;;;;;;;;;16.01;35.26;101250.09;5041266;28;820;-57
2022/01/23 13:32:51;;;;;;;;;;;;;;;16.46;34.50;101252.75;5050628;28;809;-57
2022/01/23 13:35:17;;;;;;;;;;;;;;;16.73;33.94;101241.69;5064923;28;1905;-57
2022/01/23 13:37:44;;;;;;;;;;;;;;;17.08;33.30;101252.13;5076099;28;818;-57
2022/01/23 13:40:09;;;;;;;;;;;;;;;16.75;33.83;101251.31;5063440;28;1001;-57
2022/01/23 13:54:03;;;;;;;;;;;;;;;16.17;35.17;101255.75;5052713;28;1127;-57
2022/01/23 14:04:28;;;;;;;;;;;;;;;16.77;34.05;101262.88;5038036;28;1097;-58
2022/01/23 14:06:54;;;;;;;;;;;;;;;16.41;34.73;101259.00;5056567;28;818;-58
2022/01/23 14:09:20;;;;;;;;;;;;;;;16.15;35.07;101268.91;5055756;28;908;-55
2022/01/23 14:11:45;;;;;;;;;;;;;;;15.96;35.61;101277.47;5054238;28;954;-55
2022/01/23 14:14:14;;;;;;;;;;;;;;;16.31;34.70;101273.44;5073527;28;1175;-57
2022/01/23 14:16:40;;;;;;;;;;;;;;;16.79;33.77;101261.78;5056184;28;1914;-59
2022/01/23 14:19:12;;;;;;;;;;;;;;;17.31;32.87;101280.28;5056480;28;825;-57
2022/01/23 14:21:41;;;;;;;;;;;;;;;16.59;34.19;101274.25;5055916;28;845;-57
2022/01/23 14:24:06;;;;;;;;;;;;;;;16.45;34.50;101273.03;5055740;28;1051;-55
2022/01/23 14:26:32;;;;;;;;;;;;;;;16.14;35.04;101275.47;5055512;28;986;-54
2022/01/23 14:29:02;;;;;;;;;;;;;;;15.85;35.56;101273.81;5055979;28;722;-57
2022/01/23 14:31:35;;;;;;;;;;;;;;;16.15;35.07;101274.41;5038327;28;950;-53
2022/01/23 14:34:03;;;;;;;;;;;;;;;16.59;34.25;101269.59;5056651;28;846;-54
2022/01/23 14:36:30;;;;;;;;;;;;;;;16.83;33.97;101279.38;5056144;28;1922;-54
2022/01/23 14:39:00;;;;;;;;;;;;;;;17.10;33.45;101282.91;5054838;28;841;-52
2022/01/23 14:41:27;;;;;;;;;;;;;;;17.19;33.06;101277.75;5070222;28;1063;-55
2022/01/23 14:43:52;;;;;;;;;;;;;;;17.03;33.40;101296.06;5075427;28;857;-55
2022/01/23 14:46:18;;;;;;;;;;;;;;;16.70;33.96;101284.22;5076122;28;842;-53
2022/01/23 14:48:46;;;;;;;;;;;;;;;16.17;34.89;101288.66;5060343;28;846;-51
2022/01/23 14:51:14;;;;;;;;;;;;;;;16.03;35.48;101289.09;5052679;28;1131;-54
2022/01/23 14:53:40;;;;;;;;;;;;;;;15.90;35.56;101297.72;5055853;28;985;-52
2022/01/23 14:56:06;;;;;;;;;;;;;;;16.14;35.19;101301.00;5070612;28;1905;-51
2022/01/23 14:58:33;;;;;;;;;;;;;;;16.59;34.39;101297.06;5075220;28;812;-55
2022/01/23 15:00:58;;;;;;;;;;;;;;;16.84;33.95;101303.84;5077797;28;793;-55
2022/01/23 15:03:24;;;;;;;;;;;;;;;17.12;33.36;101312.06;5068823;28;821;-51
2022/01/23 15:05:50;;;;;;;;;;;;;;;17.17;33.24;101310.16;5059774;28;853;-51
2022/01/23 15:08:20;;;;;;;;;;;;;;;17.08;33.55;101323.56;5060017;28;1500;-56
2022/01/23 15:10:45;;;;;;;;;;;;;;;16.65;34.32;101332.78;5054858;28;832;-50
2022/01/23 15:13:11;;;;;;;;;;;;;;;16.12;35.20;101338.00;5059704;28;762;-52
2022/01/23 15:15:36;;;;;;;;;;;;;;;16.13;35.26;101331.44;5055019;28;1905;-53
2022/01/23 15:18:02;;;;;;;;;;;;;;;15.83;35.63;101343.69;5079028;28;919;-51
2022/01/23 15:20:28;;;;;;;;;;;;;;;15.85;35.57;101357.97;5078752;28;949;-50
2022/01/23 15:22:53;;;;;;;;;;;;;;;15.98;35.79;101352.13;5079447;28;847;-49
2022/01/23 15:25:19;;;;;;;;;;;;;;;16.19;35.08;101355.09;5062828;28;860;-50
2022/01/23 15:27:45;;;;;;;;;;;;;;;16.33;34.79;101361.03;5059605;28;1064;-52
2022/01/23 15:30:11;;;;;;;;;;;;;;;16.56;34.52;101368.97;5076484;28;911;-50
2022/01/23 15:32:37;;;;;;;;;;;;;;;16.87;33.79;101362.91;5078329;28;786;-51
2022/01/23 15:35:03;;;;;;;;;;;;;;;17.03;33.37;101362.00;5078243;28;1984;-56
2022/01/23 15:37:28;;;;;;;;;;;;;;;16.75;33.83;101366.66;5078983;28;870;-54
2022/01/23 15:39:54;;;;;;;;;;;;;;;16.55;34.46;101371.94;5067321;28;1407;-48
2022/01/23 15:42:19;;;;;;;;;;;;;;;16.28;35.12;101367.28;5063430;28;777;-55
2022/01/23 15:44:45;;;;;;;;;;;;;;;16.15;35.10;101373.16;5078540;28;817;-54
2022/01/23 15:47:10;;;;;;;;;;;;;;;15.98;35.79;101374.06;5078734;28;807;-57
2022/01/23 15:49:36;;;;;;;;;;;;;;;16.22;35.12;101379.28;5073081;28;1000;-55
2022/01/23 15:52:02;;;;;;;;;;;;;;;16.38;34.74;101386.63;5058751;28;1030;-55
2022/01/23 15:54:29;;;;;;;;;;;;;;;16.66;34.39;101384.72;5041971;28;774;-55
2022/01/23 15:56:55;;;;;;;;;;;;;;;17.12;33.17;101387.06;5058873;28;1910;-52
2022/01/23 15:59:21;;;;;;;;;;;;;;;16.95;33.63;101387.19;5058703;28;822;-51
2022/01/23 16:01:49;;;;;;;;;;;;;;;16.45;34.73;101383.66;5058767;28;838;-54
2022/01/23 16:04:14;;;;;;;;;;;;;;;16.26;34.97;101396.91;5058506;28;839;-52
2022/01/23 16:06:40;;;;;;;;;;;;;;;16.08;35.30;101390.63;5054331;28;789;-53
2022/01/23 16:09:06;;;;;;;;;;;;;;;16.01;35.37;101381.78;5058625;28;826;-57
2022/01/23 16:11:31;;;;;;;;;;;;;;;16.30;35.04;101392.56;5051568;28;966;-56
2022/01/23 16:13:57;;;;;;;;;;;;;;;16.55;34.63;101400.25;5058222;28;870;-55
2022/01/23 16:16:24;;;;;;;;;;;;;;;17.15;33.26;101407.69;5058784;28;1910;-55
2022/01/23 16:18:50;;;;;;;;;;;;;;;16.63;34.19;101396.19;5056527;28;818;-57
2022/01/23 16:21:17;;;;;;;;;;;;;;;16.35;34.65;101406.31;5076484;28;1101;-55
2022/01/23 16:23:42;;;;;;;;;;;;;;;15.92;35.43;101399.75;5077907;28;870;-54
2022/01/23 16:26:08;;;;;;;;;;;;;;;15.96;35.33;101413.78;5058683;28;844;-56
2022/01/23 16:28:33;;;;;;;;;;;;;;;16.15;35.19;101401.44;5058733;28;875;-54
2022/01/23 16:30:59;;;;;;;;;;;;;;;16.43;34.49;101397.63;5058624;28;771;-54
2022/01/23 16:33:24;;;;;;;;;;;;;;;16.90;33.93;101409.13;5062581;28;778;-57